Time;durP1;ratioP1;P1;durP2;ratioP2;P2;SDS_P1;SDS_P2;PMS_P1;PMS_P2;Temp;Humidity;BMP_temperature;BMP_pressure;BME280_temperature;BME280_humidity;BME280_pressure;Samples;Min_cycle;Max_cycle;Signal;HPM_P1;HPM_P2
2022/07/30 00:00:53;;;;;;;8.83;6.60;;;;;15.70;101392.00;;;;10489990;28;20271;-78
2022/07/30 00:05:55;;;;;;;13.53;7.00;;;;;15.70;101396.00;;;;10484523;28;20197;-78
2022/07/30 00:10:58;;;;;;;12.43;7.73;;;;;15.60;101395.00;;;;10482565;28;20209;-78
2022/07/30 00:16:00;;;;;;;12.57;7.73;;;;;15.60;101384.00;;;;10453389;28;20196;-78
2022/07/30 00:21:02;;;;;;;10.57;7.77;;;;;15.50;101384.00;;;;10484918;28;20286;-78
2022/07/30 00:26:04;;;;;;;10.93;7.57;;;;;15.40;101388.00;;;;10474440;28;20186;-78
2022/07/30 00:31:08;;;;;;;12.47;7.60;;;;;15.40;101383.00;;;;10490373;28;20605;-78
2022/07/30 00:36:10;;;;;;;14.07;7.53;;;;;15.30;101383.00;;;;10485807;28;20186;-78
2022/07/30 00:41:12;;;;;;;10.63;7.60;;;;;15.20;101381.00;;;;10466785;28;20185;-78
2022/07/30 00:46:17;;;;;;;12.10;8.23;;;;;15.00;101380.00;;;;10452156;28;20194;-78
2022/07/30 00:51:20;;;;;;;8.60;7.30;;;;;15.00;101383.00;;;;10449051;28;20209;-78
2022/07/30 00:56:22;;;;;;;14.43;8.20;;;;;14.90;101385.00;;;;10446914;28;20194;-78
2022/07/30 01:01:23;;;;;;;12.57;8.23;;;;;14.80;101387.00;;;;10459846;28;20221;-77
2022/07/30 01:06:26;;;;;;;20.30;9.50;;;;;14.70;101377.00;;;;10448925;28;20613;-77
2022/07/30 01:11:35;;;;;;;15.83;9.20;;;;;14.70;101382.00;;;;10459299;28;20202;-77
2022/07/30 01:16:40;;;;;;;15.33;8.63;;;;;14.70;101377.00;;;;10448564;28;20694;-77
2022/07/30 01:21:47;;;;;;;13.03;10.03;;;;;14.60;101382.00;;;;10512416;28;20182;-78
2022/07/30 01:26:50;;;;;;;17.53;10.23;;;;;14.60;101390.00;;;;10480274;28;20231;-77
2022/07/30 01:31:58;;;;;;;18.87;10.27;;;;;14.60;101379.00;;;;10467331;28;20766;-78
2022/07/30 01:37:02;;;;;;;20.97;10.80;;;;;14.60;101384.00;;;;10462899;28;20740;-79
2022/07/30 01:42:07;;;;;;;18.67;11.10;;;;;14.50;101370.00;;;;10444004;28;20189;-77
2022/07/30 01:47:12;;;;;;;16.13;11.73;;;;;14.50;101364.00;;;;10467247;28;20292;-78
2022/07/30 01:52:16;;;;;;;22.27;14.17;;;;;14.60;101368.00;;;;10451985;28;20201;-78
2022/07/30 01:57:20;;;;;;;20.43;12.63;;;;;14.60;101383.00;;;;10481410;28;20255;-78
2022/07/30 02:02:22;;;;;;;17.03;11.27;;;;;14.50;101373.00;;;;10475177;28;20240;-78
2022/07/30 02:07:36;;;;;;;21.93;14.20;;;;;14.50;101377.00;;;;10467703;28;20197;-78
2022/07/30 02:12:45;;;;;;;18.70;13.70;;;;;14.50;101369.00;;;;10500373;28;20190;-77
2022/07/30 02:18:13;;;;;;;24.50;14.47;;;;;14.40;101380.00;;;;10475261;28;20303;-77
2022/07/30 02:23:18;;;;;;;24.83;14.77;;;;;14.40;101386.00;;;;10473666;28;20614;-77
2022/07/30 02:28:21;;;;;;;28.30;15.90;;;;;14.40;101389.00;;;;10464954;28;20240;-78
2022/07/30 02:33:28;;;;;;;21.87;16.27;;;;;14.50;101391.00;;;;10483770;28;20193;-78
2022/07/30 02:38:34;;;;;;;24.20;16.10;;;;;14.60;101390.00;;;;10503171;28;20184;-78
2022/07/30 02:43:39;;;;;;;24.73;16.43;;;;;14.60;101394.00;;;;10464874;28;20196;-78
2022/07/30 02:48:44;;;;;;;19.83;15.50;;;;;14.60;101403.00;;;;10485971;28;20629;-78
2022/07/30 02:53:48;;;;;;;24.17;16.33;;;;;14.60;101400.00;;;;10461819;28;20521;-78
2022/07/30 02:58:54;;;;;;;23.00;15.53;;;;;14.50;101402.00;;;;10457939;28;20618;-78
2022/07/30 03:03:57;;;;;;;26.03;15.50;;;;;14.50;101399.00;;;;10458745;28;20219;-78
2022/07/30 03:09:01;;;;;;;23.17;15.10;;;;;14.50;101394.00;;;;10447154;28;20240;-78
2022/07/30 03:14:06;;;;;;;19.27;15.87;;;;;14.50;101393.00;;;;10485184;28;20224;-78
2022/07/30 03:19:11;;;;;;;20.70;14.70;;;;;14.40;101391.00;;;;10458998;28;20289;-77
2022/07/30 03:24:14;;;;;;;19.53;14.17;;;;;14.30;101388.00;;;;10487756;28;20265;-78
2022/07/30 03:29:19;;;;;;;20.97;16.27;;;;;14.30;101383.00;;;;10466517;28;20213;-78
2022/07/30 03:34:23;;;;;;;26.43;17.53;;;;;14.30;101392.00;;;;10493544;28;20295;-77
2022/07/30 03:39:26;;;;;;;29.90;17.90;;;;;14.30;101399.00;;;;10467532;28;20218;-78
2022/07/30 03:44:30;;;;;;;32.40;17.73;;;;;14.30;101408.00;;;;10470089;28;20194;-78
2022/07/30 03:49:33;;;;;;;24.50;16.60;;;;;14.30;101393.00;;;;10451029;28;20284;-77
2022/07/30 03:54:35;;;;;;;26.53;16.27;;;;;14.30;101406.00;;;;10471285;28;20537;-78
2022/07/30 03:59:56;;;;;;;21.97;17.00;;;;;14.30;101398.00;;;;10529950;28;20201;-78
2022/07/30 04:04:58;;;;;;;25.60;16.87;;;;;14.30;101412.00;;;;10476320;28;20207;-78
2022/07/30 04:10:00;;;;;;;20.97;16.53;;;;;14.30;101410.00;;;;10490753;28;20218;-77
2022/07/30 04:15:40;;;;;;;23.37;16.97;;;;;14.30;101418.00;;;;10462244;28;20204;-78
2022/07/30 04:21:06;;;;;;;23.80;17.97;;;;;14.40;101434.00;;;;10481748;28;20662;-77
2022/07/30 04:26:17;;;;;;;27.33;18.17;;;;;14.50;101436.00;;;;10451643;28;20259;-78
2022/07/30 04:31:20;;;;;;;25.00;17.70;;;;;14.60;101441.00;;;;10492065;28;20236;-78
2022/07/30 04:36:24;;;;;;;23.53;16.57;;;;;14.70;101437.00;;;;10442444;28;20201;-78
2022/07/30 04:41:26;;;;;;;27.13;18.27;;;;;14.80;101436.00;;;;10480678;28;20200;-78
2022/07/30 04:46:47;;;;;;;23.27;17.90;;;;;14.90;101428.00;;;;10482906;28;20664;-78
2022/07/30 04:51:50;;;;;;;28.97;20.90;;;;;15.10;101435.00;;;;10465119;28;20205;-78
2022/07/30 04:56:52;;;;;;;28.67;19.70;;;;;15.30;101446.00;;;;10449486;28;20197;-78
2022/07/30 05:01:58;;;;;;;29.03;20.87;;;;;15.60;101441.00;;;;10447934;28;20304;-79
2022/07/30 05:07:02;;;;;;;31.03;21.63;;;;;15.90;101440.00;;;;10471620;28;20659;-78
2022/07/30 05:12:05;;;;;;;29.83;19.93;;;;;16.30;101446.00;;;;10473168;28;20197;-78
2022/07/30 05:17:08;;;;;;;25.83;19.57;;;;;16.70;101439.00;;;;10433167;28;20201;-78
2022/07/30 05:22:10;;;;;;;23.27;19.97;;;;;17.00;101445.00;;;;10466311;28;20186;-79
2022/07/30 05:27:12;;;;;;;28.50;19.87;;;;;17.30;101444.00;;;;10450180;28;20202;-79
2022/07/30 05:32:14;;;;;;;25.27;18.33;;;;;17.50;101441.00;;;;10469117;28;20213;-78
2022/07/30 05:37:18;;;;;;;22.70;17.23;;;;;18.00;101436.00;;;;10446672;28;20194;-79
2022/07/30 05:42:20;;;;;;;21.60;16.87;;;;;18.10;101442.00;;;;10448824;28;20185;-78
2022/07/30 05:47:26;;;;;;;28.90;15.52;;;;;18.40;101445.00;;;;10450965;28;20204;-78
2022/07/30 05:52:29;;;;;;;22.13;14.30;;;;;18.50;101444.00;;;;10443068;28;20229;-79
2022/07/30 05:57:40;;;;;;;19.13;13.68;;;;;19.00;101444.00;;;;10442285;28;20220;-78
2022/07/30 06:02:43;;;;;;;13.27;11.75;;;;;19.30;101440.00;;;;10462592;28;20209;-79
2022/07/30 06:08:00;;;;;;;12.77;10.15;;;;;19.60;101443.00;;;;10473714;28;20284;-79
2022/07/30 06:13:04;;;;;;;10.48;7.68;;;;;19.60;101449.00;;;;10473785;28;20201;-79
2022/07/30 06:18:06;;;;;;;15.45;8.57;;;;;20.00;101443.00;;;;10443455;28;20722;-78
2022/07/30 06:23:17;;;;;;;14.65;7.38;;;;;20.30;101438.00;;;;10452665;28;20715;-79
2022/07/30 06:28:42;;;;;;;9.27;6.60;;;;;20.70;101447.00;;;;10473275;28;20217;-79
2022/07/30 06:33:52;;;;;;;9.90;5.85;;;;;20.80;101455.00;;;;10475211;28;20215;-79
2022/07/30 06:38:54;;;;;;;12.02;7.32;;;;;21.00;101462.00;;;;10451370;28;20201;-79
2022/07/30 06:44:09;;;;;;;6.95;6.00;;;;;21.60;101468.00;;;;10445790;28;20641;-79
2022/07/30 06:49:36;;;;;;;8.48;5.05;;;;;21.80;101475.00;;;;10491204;28;20208;-79
2022/07/30 06:54:39;;;;;;;7.97;5.65;;;;;21.60;101473.00;;;;10464293;28;20205;-79
2022/07/30 06:59:53;;;;;;;8.70;5.93;;;;;21.80;101481.00;;;;10479992;28;20728;-79
2022/07/30 07:05:20;;;;;;;6.88;5.40;;;;;22.30;101471.00;;;;10479127;28;20227;-79
2022/07/30 07:10:24;;;;;;;6.88;5.30;;;;;22.30;101480.00;;;;10487779;28;20304;-79
2022/07/30 07:15:35;;;;;;;8.13;3.72;;;;;22.60;101475.00;;;;10469762;28;20197;-79
2022/07/30 07:20:45;;;;;;;5.13;2.83;;;;;23.30;101477.00;;;;10467474;28;20239;-79
2022/07/30 07:25:47;;;;;;;7.35;3.67;;;;;23.70;101472.00;;;;10485762;28;20698;-78
2022/07/30 07:30:50;;;;;;;6.13;3.05;;;;;24.10;101473.00;;;;10473211;28;20218;-79
2022/07/30 07:35:54;;;;;;;6.05;2.50;;;;;24.80;101487.00;;;;10483498;28;20200;-79
2022/07/30 07:41:01;;;;;;;4.95;2.15;;;;;25.00;101487.00;;;;10452779;28;20236;-78
2022/07/30 07:46:04;;;;;;;3.03;1.83;;;;;25.30;101480.00;;;;10467975;28;20205;-79
2022/07/30 07:51:08;;;;;;;3.10;1.67;;;;;24.90;101478.00;;;;10466083;28;20209;-79
2022/07/30 07:56:11;;;;;;;4.28;1.40;;;;;25.10;101471.00;;;;10469328;28;20584;-79
2022/07/30 08:01:15;;;;;;;3.38;1.60;;;;;25.50;101463.00;;;;10455815;28;20610;-79
2022/07/30 08:06:36;;;;;;;3.72;1.50;;;;;26.10;101473.00;;;;10494384;28;20195;-79
2022/07/30 08:11:57;;;;;;;2.97;1.45;;;;;26.60;101460.00;;;;10484686;28;20683;-78
2022/07/30 08:17:19;;;;;;;3.30;1.60;;;;;26.60;101462.00;;;;10504876;28;20189;-79
2022/07/30 08:22:42;;;;;;;1.23;0.90;;;;;26.70;101447.00;;;;10474377;28;20193;-78
2022/07/30 08:27:45;;;;;;;3.35;1.20;;;;;26.70;101452.00;;;;10462554;28;20201;-78
2022/07/30 08:32:47;;;;;;;1.75;0.90;;;;;27.60;101449.00;;;;10496879;28;20200;-78
2022/07/30 08:37:50;;;;;;;3.80;1.13;;;;;28.20;101444.00;;;;10478351;28;20219;-78
2022/07/30 08:42:54;;;;;;;3.90;0.95;;;;;28.30;101450.00;;;;10481374;28;20213;-78
2022/07/30 08:47:59;;;;;;;2.63;1.38;;;;;29.00;101447.00;;;;10497956;28;20190;-78
2022/07/30 08:53:10;;;;;;;3.90;1.40;;;;;29.60;101459.00;;;;10461147;28;20209;-77
2022/07/30 08:58:28;;;;;;;2.67;1.33;;;;;28.40;101456.00;;;;10484672;28;20259;-78
2022/07/30 09:03:31;;;;;;;2.30;1.08;;;;;28.00;101466.00;;;;10465110;28;20301;-78
2022/07/30 09:08:35;;;;;;;2.35;1.30;;;;;28.10;101471.00;;;;10474345;28;20191;-78
2022/07/30 09:13:40;;;;;;;4.20;1.70;;;;;29.80;101459.00;;;;10480469;28;20212;-79
2022/07/30 09:18:43;;;;;;;3.03;1.20;;;;;29.60;101458.00;;;;10494899;28;20284;-79
2022/07/30 09:24:00;;;;;;;4.50;1.48;;;;;28.70;101466.00;;;;10461369;28;20655;-79
2022/07/30 09:29:27;;;;;;;2.00;1.00;;;;;28.80;101455.00;;;;10510293;28;20212;-78
2022/07/30 09:34:48;;;;;;;1.33;1.13;;;;;30.30;101441.00;;;;10488553;28;20192;-78
2022/07/30 09:40:17;;;;;;;1.33;0.98;;;;;30.50;101448.00;;;;10489219;28;20195;-78
2022/07/30 09:45:50;;;;;;;4.38;1.45;;;;;30.10;101455.00;;;;10491727;28;20197;-78
2022/07/30 09:50:58;;;;;;;2.67;1.70;;;;;31.00;101449.00;;;;10485783;28;20313;-79
2022/07/30 09:56:23;;;;;;;1.95;1.27;;;;;32.00;101447.00;;;;10483650;28;20189;-78
2022/07/30 10:01:27;;;;;;;2.95;1.20;;;;;32.40;101447.00;;;;10475431;28;20713;-80
2022/07/30 10:07:20;;;;;;;3.35;1.35;;;;;32.70;101447.00;;;;10488437;28;20678;-78
2022/07/30 10:12:32;;;;;;;3.53;1.30;;;;;31.90;101452.00;;;;10467023;28;20247;-79
2022/07/30 10:17:37;;;;;;;1.95;1.35;;;;;31.30;101451.00;;;;10484767;28;20567;-78
2022/07/30 10:22:53;;;;;;;4.00;1.58;;;;;32.60;101450.00;;;;10501212;28;20189;-79
2022/07/30 10:28:11;;;;;;;3.65;1.40;;;;;33.40;101444.00;;;;10505925;28;20253;-79
2022/07/30 10:33:14;;;;;;;4.85;1.60;;;;;33.70;101443.00;;;;10471243;28;20228;-78
2022/07/30 10:38:39;;;;;;;4.68;1.98;;;;;34.70;101446.00;;;;10500228;28;20220;-79
2022/07/30 10:44:19;;;;;;;3.88;1.40;;;;;35.90;101448.00;;;;10499638;28;20177;-78
2022/07/30 10:49:22;;;;;;;4.85;1.33;;;;;36.30;101445.00;;;;10487235;28;20205;-78
2022/07/30 10:54:37;;;;;;;2.85;1.30;;;;;35.60;101432.00;;;;10478967;28;20201;-78
2022/07/30 11:00:01;;;;;;;2.33;1.20;;;;;35.10;101431.00;;;;10499587;28;20177;-78
2022/07/30 11:05:18;;;;;;;1.80;1.30;;;;;35.30;101423.00;;;;10477224;28;20262;-78
2022/07/30 11:10:40;;;;;;;3.40;1.40;;;;;34.50;101417.00;;;;10485507;28;20213;-78
2022/07/30 11:15:59;;;;;;;4.15;1.50;;;;;34.20;101413.00;;;;10483113;28;20193;-78
2022/07/30 11:21:19;;;;;;;3.88;1.42;;;;;34.10;101423.00;;;;10492512;28;20185;-78
2022/07/30 11:26:38;;;;;;;2.17;1.10;;;;;34.50;101411.00;;;;10502478;28;20177;-78
2022/07/30 11:31:42;;;;;;;3.42;1.40;;;;;33.80;101410.00;;;;10475958;28;20240;-78
2022/07/30 11:37:17;;;;;;;2.80;1.30;;;;;33.20;101406.00;;;;10523796;28;20284;-77
2022/07/30 11:42:39;;;;;;;4.43;1.30;;;;;33.40;101400.00;;;;10476997;28;20185;-78
2022/07/30 11:47:42;;;;;;;2.45;1.17;;;;;35.00;101403.00;;;;10484366;28;20703;-77
2022/07/30 11:52:49;;;;;;;5.45;1.58;;;;;35.20;101398.00;;;;10443710;28;20244;-78
2022/07/30 11:57:52;;;;;;;1.58;1.25;;;;;35.40;101405.00;;;;10479859;28;20189;-78
2022/07/30 12:02:54;;;;;;;3.42;1.33;;;;;35.30;101412.00;;;;10458802;28;20210;-78
2022/07/30 12:07:57;;;;;;;4.20;1.42;;;;;35.30;101406.00;;;;10455108;28;20193;-78
2022/07/30 12:13:13;;;;;;;3.40;1.23;;;;;36.50;101403.00;;;;10452066;28;20267;-78
2022/07/30 12:18:27;;;;;;;3.85;1.60;;;;;36.60;101399.00;;;;10476373;28;20216;-78
2022/07/30 12:23:30;;;;;;;2.83;1.40;;;;;36.80;101396.00;;;;10490308;28;20197;-78
2022/07/30 12:28:34;;;;;;;4.95;1.40;;;;;37.00;101397.00;;;;10489230;28;20207;-78
2022/07/30 12:33:37;;;;;;;2.78;1.40;;;;;37.10;101382.00;;;;10472241;28;20223;-78
2022/07/30 12:38:47;;;;;;;1.67;1.27;;;;;37.20;101387.00;;;;10482432;28;20207;-79
2022/07/30 12:43:54;;;;;;;2.20;1.38;;;;;37.00;101388.00;;;;10507755;28;20185;-77
2022/07/30 12:49:00;;;;;;;4.57;1.33;;;;;37.20;101368.00;;;;10502937;28;20196;-77
2022/07/30 12:54:15;;;;;;;5.97;1.40;;;;;37.10;101374.00;;;;10467046;28;20200;-77
2022/07/30 12:59:21;;;;;;;3.92;1.38;;;;;36.90;101373.00;;;;10469658;28;20201;-77
2022/07/30 13:04:23;;;;;;;4.40;1.60;;;;;36.40;101360.00;;;;10461950;28;20221;-77
2022/07/30 13:09:25;;;;;;;4.40;1.27;;;;;34.80;101363.00;;;;10479952;28;20656;-78
2022/07/30 13:14:27;;;;;;;4.05;1.58;;;;;33.40;101368.00;;;;10454737;28;20193;-78
2022/07/30 13:19:33;;;;;;;4.05;1.85;;;;;32.30;101367.00;;;;10445625;28;20205;-78
2022/07/30 13:24:41;;;;;;;3.10;1.73;;;;;31.80;101366.00;;;;10481497;28;20189;-78
2022/07/30 13:29:43;;;;;;;4.55;1.30;;;;;31.30;101362.00;;;;10482723;28;20454;-77
2022/07/30 13:34:48;;;;;;;5.38;1.40;;;;;31.10;101360.00;;;;10482324;28;20193;-77
2022/07/30 13:39:51;;;;;;;2.05;1.00;;;;;30.70;101350.00;;;;10464472;28;20185;-78
2022/07/30 13:44:53;;;;;;;4.22;1.50;;;;;30.70;101351.00;;;;10484043;28;20189;-78
2022/07/30 13:49:58;;;;;;;3.72;1.70;;;;;31.20;101342.00;;;;10480539;28;20224;-78
2022/07/30 13:55:03;;;;;;;4.88;2.08;;;;;31.70;101343.00;;;;10484043;28;20661;-78
2022/07/30 14:00:07;;;;;;;3.55;1.08;;;;;32.40;101338.00;;;;10477278;28;20189;-78
2022/07/30 14:05:09;;;;;;;5.95;1.63;;;;;33.40;101329.00;;;;10448491;28;20201;-77
2022/07/30 14:10:11;;;;;;;3.42;1.33;;;;;34.70;101323.00;;;;10495462;28;20471;-77
2022/07/30 14:15:13;;;;;;;3.55;1.45;;;;;36.20;101325.00;;;;10462475;28;20201;-78
2022/07/30 14:20:19;;;;;;;2.88;1.20;;;;;37.00;101326.00;;;;10494096;28;20181;-77
2022/07/30 14:25:21;;;;;;;2.28;1.30;;;;;35.00;101320.00;;;;10463396;28;20237;-78
2022/07/30 14:30:23;;;;;;;3.17;1.50;;;;;32.50;101322.00;;;;10449490;28;20688;-78
2022/07/30 14:35:26;;;;;;;2.47;1.23;;;;;33.30;101327.00;;;;10474704;28;20280;-79
2022/07/30 14:40:28;;;;;;;1.55;1.45;;;;;31.70;101316.00;;;;10497986;28;20182;-78
2022/07/30 14:45:30;;;;;;;2.90;1.30;;;;;31.30;101311.00;;;;10475133;28;20185;-78
2022/07/30 14:50:32;;;;;;;5.22;1.60;;;;;32.70;101302.00;;;;10465594;28;20220;-78
2022/07/30 14:55:55;;;;;;;3.50;1.30;;;;;32.20;101312.00;;;;10475192;28;20185;-78
2022/07/30 15:00:57;;;;;;;2.58;1.40;;;;;32.00;101318.00;;;;10477192;28;20209;-78
2022/07/30 15:05:59;;;;;;;3.45;1.20;;;;;32.00;101314.00;;;;10476763;28;20198;-78
2022/07/30 15:11:02;;;;;;;3.20;1.48;;;;;32.00;101310.00;;;;10482116;28;20204;-78
2022/07/30 15:16:09;;;;;;;2.55;1.40;;;;;32.30;101303.00;;;;10489810;28;20555;-78
2022/07/30 15:21:13;;;;;;;3.50;1.30;;;;;31.90;101306.00;;;;10518994;28;20189;-78
2022/07/30 15:26:15;;;;;;;4.10;1.35;;;;;32.00;101304.00;;;;10500318;28;20193;-77
2022/07/30 15:31:17;;;;;;;2.90;1.05;;;;;31.30;101309.00;;;;10500452;28;20249;-78
2022/07/30 15:36:19;;;;;;;2.13;1.30;;;;;30.80;101308.00;;;;10457633;28;20194;-77
2022/07/30 15:41:22;;;;;;;2.97;1.40;;;;;31.20;101296.00;;;;10476027;28;20204;-79
2022/07/30 15:46:24;;;;;;;1.75;1.27;;;;;30.60;101298.00;;;;10469417;28;20533;-79
2022/07/30 15:51:26;;;;;;;2.92;1.27;;;;;30.20;101288.00;;;;10476984;28;20205;-79
2022/07/30 15:56:31;;;;;;;3.55;1.50;;;;;30.00;101291.00;;;;10448747;28;20205;-79
2022/07/30 16:01:33;;;;;;;3.65;1.55;;;;;29.60;101300.00;;;;10449298;28;20226;-79
2022/07/30 16:06:35;;;;;;;2.13;1.20;;;;;29.30;101294.00;;;;10450100;28;20194;-79
2022/07/30 16:11:37;;;;;;;1.60;1.42;;;;;29.20;101293.00;;;;10450279;28;20267;-79
2022/07/30 16:16:39;;;;;;;1.80;1.30;;;;;29.10;101283.00;;;;10484431;28;20208;-79
2022/07/30 16:21:41;;;;;;;3.25;1.25;;;;;29.10;101283.00;;;;10484008;28;20231;-79
2022/07/30 16:26:43;;;;;;;3.60;1.30;;;;;29.30;101280.00;;;;10465773;28;20197;-79
2022/07/30 16:31:46;;;;;;;2.50;1.20;;;;;29.30;101269.00;;;;10458461;28;20224;-79
2022/07/30 16:36:48;;;;;;;2.13;1.00;;;;;29.20;101260.00;;;;10459290;28;20207;-79
2022/07/30 16:41:50;;;;;;;1.45;1.20;;;;;29.20;101256.00;;;;10474068;28;20205;-79
2022/07/30 16:46:52;;;;;;;3.80;1.52;;;;;28.90;101250.00;;;;10474313;28;20594;-79
2022/07/30 16:51:54;;;;;;;5.80;1.30;;;;;28.60;101262.00;;;;10507210;28;20621;-79
2022/07/30 16:56:56;;;;;;;3.65;1.35;;;;;28.30;101259.00;;;;10481497;28;20283;-79
2022/07/30 17:01:58;;;;;;;1.52;1.05;;;;;28.10;101272.00;;;;10474755;28;20232;-79
2022/07/30 17:07:02;;;;;;;3.05;1.60;;;;;28.00;101265.00;;;;10488027;28;20185;-79
2022/07/30 17:12:05;;;;;;;2.25;1.38;;;;;27.60;101260.00;;;;10488795;28;20228;-79
2022/07/30 17:17:13;;;;;;;3.50;1.45;;;;;27.50;101252.00;;;;10489801;28;20291;-79
2022/07/30 17:22:15;;;;;;;2.03;1.20;;;;;27.60;101249.00;;;;10505904;28;20618;-79
2022/07/30 17:27:17;;;;;;;3.88;1.48;;;;;28.00;101246.00;;;;10472539;28;20292;-79
2022/07/30 17:32:20;;;;;;;4.95;1.60;;;;;28.40;101247.00;;;;10475196;28;20667;-79
2022/07/30 17:37:23;;;;;;;1.92;1.02;;;;;28.40;101250.00;;;;10463745;28;20234;-79
2022/07/30 17:42:25;;;;;;;2.72;1.30;;;;;28.30;101248.00;;;;10429559;28;20631;-79
2022/07/30 17:47:27;;;;;;;4.85;1.23;;;;;27.90;101248.00;;;;10493672;28;20189;-79
2022/07/30 17:52:31;;;;;;;3.00;1.42;;;;;27.50;101240.00;;;;10488488;28;20212;-79
2022/07/30 17:57:33;;;;;;;3.53;1.48;;;;;27.10;101240.00;;;;10475897;28;20244;-79
2022/07/30 18:02:36;;;;;;;3.38;1.25;;;;;26.60;101247.00;;;;10461830;28;20304;-78
2022/07/30 18:07:38;;;;;;;3.13;1.58;;;;;26.10;101236.00;;;;10503908;28;20193;-79
2022/07/30 18:12:40;;;;;;;6.32;2.00;;;;;25.70;101243.00;;;;10474588;28;20209;-79
2022/07/30 18:17:50;;;;;;;1.60;1.50;;;;;25.40;101236.00;;;;10429582;28;20384;-79
2022/07/30 18:22:52;;;;;;;3.22;1.75;;;;;25.20;101245.00;;;;10480033;28;20559;-79
2022/07/30 18:27:54;;;;;;;2.00;1.33;;;;;25.10;101238.00;;;;10462322;28;20193;-79
2022/07/30 18:32:57;;;;;;;4.72;1.98;;;;;25.20;101241.00;;;;10464278;28;20220;-79
2022/07/30 18:37:59;;;;;;;5.13;1.38;;;;;25.10;101240.00;;;;10487470;28;20196;-79
2022/07/30 18:43:02;;;;;;;5.15;1.17;;;;;25.10;101244.00;;;;10470923;28;20188;-79
2022/07/30 18:48:05;;;;;;;1.63;1.45;;;;;25.10;101250.00;;;;10487022;28;20258;-78
2022/07/30 18:53:07;;;;;;;2.13;1.30;;;;;25.10;101251.00;;;;10476768;28;20228;-79
2022/07/30 18:58:16;;;;;;;5.03;1.75;;;;;25.00;101251.00;;;;10512558;28;20219;-79
2022/07/30 19:03:18;;;;;;;4.65;2.50;;;;;24.90;101255.00;;;;10494306;28;20228;-79
2022/07/30 19:08:23;;;;;;;7.68;3.65;;;;;24.60;101254.00;;;;10494357;28;20248;-79
2022/07/30 19:13:25;;;;;;;2.40;1.70;;;;;24.40;101249.00;;;;10478093;28;20702;-79
2022/07/30 19:18:27;;;;;;;1.77;1.50;;;;;24.30;101255.00;;;;10477618;28;20660;-79
2022/07/30 19:23:29;;;;;;;2.28;1.70;;;;;24.00;101248.00;;;;10477783;28;20703;-79
2022/07/30 19:28:32;;;;;;;4.47;1.58;;;;;23.80;101250.00;;;;10493411;28;20246;-78
2022/07/30 19:33:34;;;;;;;2.88;1.70;;;;;23.80;101249.00;;;;10486027;28;20217;-79
2022/07/30 19:38:38;;;;;;;4.35;1.58;;;;;23.70;101252.00;;;;10462575;28;20201;-79
2022/07/30 19:43:41;;;;;;;5.53;1.80;;;;;23.60;101262.00;;;;10493199;28;20193;-79
2022/07/30 19:48:43;;;;;;;4.03;1.50;;;;;23.70;101275.00;;;;10510155;28;20185;-79
2022/07/30 19:53:45;;;;;;;3.30;1.45;;;;;23.60;101275.00;;;;10476429;28;20224;-79
2022/07/30 19:58:47;;;;;;;1.77;1.23;;;;;23.40;101282.00;;;;10467522;28;20216;-78
2022/07/30 20:03:50;;;;;;;4.90;1.42;;;;;23.30;101292.00;;;;10465928;28;20231;-78
2022/07/30 20:08:52;;;;;;;2.00;1.38;;;;;23.30;101297.00;;;;10434441;28;20197;-79
2022/07/30 20:13:54;;;;;;;4.20;1.40;;;;;23.20;101292.00;;;;10434750;28;20213;-79
2022/07/30 20:18:56;;;;;;;2.70;1.50;;;;;23.20;101293.00;;;;10485317;28;20200;-78
2022/07/30 20:24:00;;;;;;;3.85;1.30;;;;;23.20;101300.00;;;;10475244;28;20235;-78
2022/07/30 20:29:02;;;;;;;2.33;1.35;;;;;23.30;101305.00;;;;10492331;28;20196;-78
2022/07/30 20:34:10;;;;;;;2.63;1.40;;;;;23.30;101308.00;;;;10467417;28;20695;-79
2022/07/30 20:39:19;;;;;;;2.08;1.33;;;;;23.30;101314.00;;;;10450343;28;20232;-78
2022/07/30 20:44:21;;;;;;;2.80;1.80;;;;;23.20;101323.00;;;;10470824;28;20181;-78
2022/07/30 20:49:24;;;;;;;1.70;1.25;;;;;23.10;101325.00;;;;10507548;28;20199;-78
2022/07/30 20:54:37;;;;;;;1.85;1.40;;;;;23.00;101324.00;;;;10493332;28;20218;-78
2022/07/30 20:59:46;;;;;;;4.68;1.75;;;;;22.90;101315.00;;;;10475378;28;20643;-78
2022/07/30 21:04:50;;;;;;;3.28;2.05;;;;;22.70;101315.00;;;;10465903;28;20308;-78
2022/07/30 21:09:52;;;;;;;6.10;2.00;;;;;22.50;101318.00;;;;10449262;28;20560;-78
2022/07/30 21:14:56;;;;;;;3.00;1.88;;;;;22.40;101308.00;;;;10482019;28;20249;-78
2022/07/30 21:19:58;;;;;;;5.63;1.80;;;;;22.20;101315.00;;;;10465665;28;20193;-78
2022/07/30 21:25:02;;;;;;;4.45;2.10;;;;;22.10;101302.00;;;;10464790;28;20645;-78
2022/07/30 21:30:09;;;;;;;2.95;1.45;;;;;21.90;101306.00;;;;10448651;28;20301;-78
2022/07/30 21:35:11;;;;;;;6.70;2.08;;;;;21.80;101310.00;;;;10473387;28;20225;-78
2022/07/30 21:40:17;;;;;;;3.03;1.92;;;;;21.70;101304.00;;;;10507115;28;20207;-78
2022/07/30 21:45:25;;;;;;;3.35;1.90;;;;;21.60;101300.00;;;;10491812;28;20195;-78
2022/07/30 21:50:40;;;;;;;4.97;2.30;;;;;21.50;101300.00;;;;10489639;28;20197;-78
2022/07/30 21:55:44;;;;;;;5.25;2.22;;;;;21.40;101298.00;;;;10472519;28;20204;-78
2022/07/30 22:00:54;;;;;;;8.23;2.53;;;;;21.30;101306.00;;;;10473276;28;20221;-78
2022/07/30 22:05:56;;;;;;;4.90;2.10;;;;;21.30;101306.00;;;;10500846;28;20245;-79
2022/07/30 22:10:59;;;;;;;6.43;2.08;;;;;21.20;101311.00;;;;10468036;28;20690;-78
2022/07/30 22:16:01;;;;;;;4.55;2.33;;;;;21.10;101310.00;;;;10474933;28;20194;-78
2022/07/30 22:21:03;;;;;;;6.68;2.17;;;;;21.10;101303.00;;;;10457773;28;20193;-78
2022/07/30 22:26:07;;;;;;;2.28;2.05;;;;;21.10;101318.00;;;;10487163;28;20539;-78
2022/07/30 22:31:10;;;;;;;2.95;2.00;;;;;21.10;101323.00;;;;10468111;28;20221;-78
2022/07/30 22:36:17;;;;;;;5.05;2.13;;;;;21.10;101315.00;;;;10445911;28;20190;-78
2022/07/30 22:41:25;;;;;;;3.70;2.10;;;;;21.10;101305.00;;;;10400141;28;20192;-78
2022/07/30 22:46:30;;;;;;;5.43;2.30;;;;;21.00;101319.00;;;;10485059;28;20231;-79
2022/07/30 22:51:32;;;;;;;3.70;1.70;;;;;21.00;101322.00;;;;10470650;28;20307;-78
2022/07/30 22:56:54;;;;;;;3.22;1.60;;;;;21.00;101322.00;;;;10507413;28;20221;-78
2022/07/30 23:02:05;;;;;;;3.35;1.73;;;;;21.10;101338.00;;;;10487563;28;20219;-79
2022/07/30 23:07:13;;;;;;;3.33;1.60;;;;;21.10;101348.00;;;;10495174;28;20280;-78
2022/07/30 23:12:20;;;;;;;4.75;1.45;;;;;21.10;101341.00;;;;10487125;28;20213;-78
2022/07/30 23:17:22;;;;;;;2.33;1.45;;;;;21.10;101321.00;;;;10503789;28;20648;-78
2022/07/30 23:22:24;;;;;;;1.80;1.50;;;;;21.10;101308.00;;;;10470082;28;20190;-78
2022/07/30 23:27:26;;;;;;;1.92;1.67;;;;;21.00;101294.00;;;;10437503;28;20198;-79
2022/07/30 23:32:28;;;;;;;2.38;1.60;;;;;21.00;101304.00;;;;10445841;28;20219;-78
2022/07/30 23:37:32;;;;;;;3.33;1.60;;;;;20.90;101304.00;;;;10483287;28;20243;-79
2022/07/30 23:42:49;;;;;;;2.08;1.48;;;;;20.90;101299.00;;;;10485964;28;20219;-78
2022/07/30 23:47:51;;;;;;;4.10;1.50;;;;;20.80;101323.00;;;;10435587;28;20193;-78
2022/07/30 23:53:04;;;;;;;1.88;1.67;;;;;20.70;101326.00;;;;10469600;28;20206;-78
2022/07/30 23:58:06;;;;;;;2.13;1.40;;;;;20.50;101317.00;;;;10468109;28;20193;-79
